Time;durP1;ratioP1;P1;durP2;ratioP2;P2;SDS_P1;SDS_P2;PMS_P1;PMS_P2;Temp;Humidity;BMP_temperature;BMP_pressure;BME280_temperature;BME280_humidity;BME280_pressure;Samples;Min_cycle;Max_cycle;Signal;HPM_P1;HPM_P2
2023/12/12 00:00:54;;;;;;;4.63;1.35;;;;;;;;;;5025172;28;87851;-80
2023/12/12 00:03:21;;;;;;;5.35;1.40;;;;;;;;;;5024944;28;89145;-80
2023/12/12 00:05:48;;;;;;;4.22;1.35;;;;;;;;;;5024179;28;88538;-80
2023/12/12 00:08:14;;;;;;;5.95;1.55;;;;;;;;;;5027321;28;87870;-82
2023/12/12 00:10:41;;;;;;;9.95;1.65;;;;;;;;;;5023876;28;89911;-81
2023/12/12 00:13:07;;;;;;;8.55;1.42;;;;;;;;;;5024298;28;87994;-81
2023/12/12 00:15:34;;;;;;;6.88;1.30;;;;;;;;;;5026159;28;88657;-82
2023/12/12 00:18:00;;;;;;;5.45;1.40;;;;;;;;;;5025787;28;88840;-82
2023/12/12 00:20:27;;;;;;;4.07;1.40;;;;;;;;;;5027102;28;87962;-82
2023/12/12 00:22:54;;;;;;;4.55;1.40;;;;;;;;;;5025341;28;88789;-81
2023/12/12 00:25:21;;;;;;;6.13;1.40;;;;;;;;;;5026108;28;88507;-81
2023/12/12 00:27:47;;;;;;;5.72;1.40;;;;;;;;;;5027461;28;88007;-82
2023/12/12 00:30:14;;;;;;;6.38;1.42;;;;;;;;;;5024283;28;88000;-81
2023/12/12 00:32:40;;;;;;;6.95;1.52;;;;;;;;;;5025472;28;87672;-81
2023/12/12 00:35:07;;;;;;;3.60;1.40;;;;;;;;;;5026221;28;88043;-82
2023/12/12 00:37:33;;;;;;;5.55;1.38;;;;;;;;;;5025864;28;88807;-81
2023/12/12 00:40:01;;;;;;;8.18;1.60;;;;;;;;;;5023147;27;87711;-81
2023/12/12 00:42:28;;;;;;;3.90;1.40;;;;;;;;;;5025488;27;88550;-81
2023/12/12 00:44:54;;;;;;;4.57;1.42;;;;;;;;;;5025377;27;88875;-81
2023/12/12 00:47:21;;;;;;;3.75;1.38;;;;;;;;;;5023930;28;89376;-81
2023/12/12 00:49:47;;;;;;;5.40;1.50;;;;;;;;;;5027588;27;87754;-81
2023/12/12 00:52:14;;;;;;;4.22;1.50;;;;;;;;;;5025526;27;87708;-81
2023/12/12 00:54:40;;;;;;;5.80;1.40;;;;;;;;;;5025251;27;87788;-80
2023/12/12 00:57:07;;;;;;;5.13;1.30;;;;;;;;;;5025554;27;88301;-81
2023/12/12 00:59:33;;;;;;;4.80;1.30;;;;;;;;;;5023973;28;87335;-80
2023/12/12 01:02:00;;;;;;;6.40;1.40;;;;;;;;;;5023428;27;90035;-80
2023/12/12 01:04:26;;;;;;;3.90;1.48;;;;;;;;;;5025010;27;88366;-80
2023/12/12 01:06:53;;;;;;;4.90;1.40;;;;;;;;;;5023934;28;89929;-80
2023/12/12 01:09:20;;;;;;;4.78;1.40;;;;;;;;;;5024259;27;88812;-80
2023/12/12 01:11:46;;;;;;;2.92;1.17;;;;;;;;;;5025600;28;88355;-80
2023/12/12 01:14:13;;;;;;;3.92;1.50;;;;;;;;;;5024419;27;88087;-80
2023/12/12 01:16:41;;;;;;;4.53;1.42;;;;;;;;;;5023623;28;90976;-80
2023/12/12 01:19:07;;;;;;;6.10;1.50;;;;;;;;;;5024871;28;87577;-81
2023/12/12 01:21:34;;;;;;;4.97;1.50;;;;;;;;;;5025380;28;87829;-79
2023/12/12 01:24:01;;;;;;;4.65;1.50;;;;;;;;;;5024537;27;88111;-81
2023/12/12 01:26:27;;;;;;;4.72;1.48;;;;;;;;;;5025315;27;87812;-80
2023/12/12 01:28:54;;;;;;;6.05;1.25;;;;;;;;;;5023912;28;88756;-80
2023/12/12 01:31:20;;;;;;;5.57;1.33;;;;;;;;;;5024450;27;88717;-80
2023/12/12 01:33:49;;;;;;;4.15;1.30;;;;;;;;;;5026643;27;87684;-80
2023/12/12 01:36:15;;;;;;;4.10;1.30;;;;;;;;;;5023218;28;90881;-79
2023/12/12 01:38:43;;;;;;;3.38;1.20;;;;;;;;;;5024531;28;88139;-80
2023/12/12 01:41:10;;;;;;;3.03;1.30;;;;;;;;;;5023763;28;90956;-80
2023/12/12 01:43:36;;;;;;;3.33;1.20;;;;;;;;;;5022792;28;88158;-80
2023/12/12 01:46:05;;;;;;;4.50;1.30;;;;;;;;;;5024529;27;91248;-79
2023/12/12 01:48:31;;;;;;;4.82;1.38;;;;;;;;;;5024629;28;88576;-79
2023/12/12 01:50:59;;;;;;;3.75;1.38;;;;;;;;;;5024763;28;87790;-79
2023/12/12 01:53:29;;;;;;;8.13;1.55;;;;;;;;;;5022708;28;87740;-80
2023/12/12 01:55:57;;;;;;;6.45;1.38;;;;;;;;;;5026177;27;88532;-79
2023/12/12 01:58:24;;;;;;;4.35;1.33;;;;;;;;;;5023736;27;87975;-79
2023/12/12 02:00:51;;;;;;;4.20;1.20;;;;;;;;;;5023102;28;90805;-80
2023/12/12 02:03:18;;;;;;;5.32;1.20;;;;;;;;;;5024768;27;88276;-80
2023/12/12 02:05:46;;;;;;;2.85;1.10;;;;;;;;;;5022784;28;89885;-80
2023/12/12 02:08:12;;;;;;;6.43;1.48;;;;;;;;;;5022910;28;90085;-80
2023/12/12 02:10:39;;;;;;;4.75;1.50;;;;;;;;;;5023369;28;90699;-79
2023/12/12 02:13:06;;;;;;;5.40;1.33;;;;;;;;;;5024823;27;87413;-79
2023/12/12 02:15:33;;;;;;;5.85;1.30;;;;;;;;;;5025186;27;87716;-80
2023/12/12 02:17:59;;;;;;;6.85;1.33;;;;;;;;;;5025939;27;88727;-80
2023/12/12 02:20:26;;;;;;;8.13;1.60;;;;;;;;;;5022872;28;91048;-81
2023/12/12 02:22:53;;;;;;;7.00;1.40;;;;;;;;;;5009987;28;91514;-81
2023/12/12 02:25:19;;;;;;;8.45;1.60;;;;;;;;;;5027983;27;88044;-81
2023/12/12 02:27:46;;;;;;;3.58;1.15;;;;;;;;;;5025496;27;90870;-81
2023/12/12 02:30:16;;;;;;;4.88;1.30;;;;;;;;;;5027562;27;87701;-81
2023/12/12 02:32:42;;;;;;;4.28;1.42;;;;;;;;;;5028167;27;88050;-81
2023/12/12 02:35:09;;;;;;;6.55;1.40;;;;;;;;;;5026181;28;90315;-81
2023/12/12 02:37:36;;;;;;;4.90;1.33;;;;;;;;;;5030095;28;88368;-81
2023/12/12 02:40:03;;;;;;;5.07;1.40;;;;;;;;;;5045662;27;94444;-80
2023/12/12 02:42:30;;;;;;;5.68;1.30;;;;;;;;;;5046249;27;88309;-81
2023/12/12 02:44:59;;;;;;;4.95;1.23;;;;;;;;;;5035345;27;89054;-80
2023/12/12 02:47:25;;;;;;;5.80;1.48;;;;;;;;;;5027780;27;89470;-80
2023/12/12 02:49:55;;;;;;;5.93;1.58;;;;;;;;;;5042866;27;88273;-80
2023/12/12 02:52:22;;;;;;;4.90;1.35;;;;;;;;;;5027472;27;87785;-80
2023/12/12 02:54:48;;;;;;;4.43;1.25;;;;;;;;;;5037401;27;88009;-81
2023/12/12 02:57:15;;;;;;;5.82;1.45;;;;;;;;;;5032793;28;88349;-81
2023/12/12 02:59:42;;;;;;;4.50;1.40;;;;;;;;;;5027784;27;89367;-80
2023/12/12 03:02:08;;;;;;;6.75;1.52;;;;;;;;;;5043970;27;87510;-81
2023/12/12 03:04:35;;;;;;;4.65;1.50;;;;;;;;;;5026011;28;87763;-81
2023/12/12 03:07:01;;;;;;;5.35;1.50;;;;;;;;;;5037327;28;89703;-80
2023/12/12 03:09:28;;;;;;;8.35;1.73;;;;;;;;;;5031099;27;89226;-81
2023/12/12 03:11:56;;;;;;;6.30;1.40;;;;;;;;;;5042268;27;89479;-81
2023/12/12 03:14:26;;;;;;;6.60;1.70;;;;;;;;;;5033156;27;87991;-79
2023/12/12 03:16:52;;;;;;;5.38;1.60;;;;;;;;;;5035986;28;88809;-80
2023/12/12 03:19:19;;;;;;;6.55;1.40;;;;;;;;;;5009041;28;88946;-79
2023/12/12 03:21:45;;;;;;;15.80;1.60;;;;;;;;;;5026155;28;90904;-79
2023/12/12 03:24:12;;;;;;;4.22;1.30;;;;;;;;;;5030557;28;89894;-80
2023/12/12 03:26:38;;;;;;;3.95;1.50;;;;;;;;;;5038186;28;87462;-80
2023/12/12 03:29:05;;;;;;;3.67;1.40;;;;;;;;;;5038965;27;88289;-79
2023/12/12 03:31:32;;;;;;;5.65;1.52;;;;;;;;;;5031129;27;88024;-81
2023/12/12 03:33:58;;;;;;;5.97;1.40;;;;;;;;;;5028990;27;88324;-80
2023/12/12 03:36:25;;;;;;;5.90;1.55;;;;;;;;;;5045752;28;89932;-79
2023/12/12 03:38:52;;;;;;;6.82;1.60;;;;;;;;;;5034896;28;88022;-80
2023/12/12 03:41:18;;;;;;;5.38;1.60;;;;;;;;;;5027125;28;88844;-79
2023/12/12 03:43:45;;;;;;;6.50;1.73;;;;;;;;;;5028558;27;88361;-80
2023/12/12 03:46:12;;;;;;;4.15;1.42;;;;;;;;;;5030475;28;88155;-80
2023/12/12 03:48:39;;;;;;;5.57;1.60;;;;;;;;;;5038158;27;88205;-81
2023/12/12 03:51:12;;;;;;;7.07;1.40;;;;;;;;;;5025355;28;87255;-80
2023/12/12 03:53:39;;;;;;;7.50;1.58;;;;;;;;;;5024654;28;90257;-81
2023/12/12 03:56:06;;;;;;;5.32;1.52;;;;;;;;;;5025063;28;90227;-80
2023/12/12 03:58:32;;;;;;;7.03;1.60;;;;;;;;;;5023905;28;88509;-81
2023/12/12 04:00:59;;;;;;;5.25;1.45;;;;;;;;;;5008401;28;90777;-80
2023/12/12 04:03:26;;;;;;;4.22;1.60;;;;;;;;;;5024620;28;88323;-81
2023/12/12 04:05:52;;;;;;;4.80;1.73;;;;;;;;;;5011043;28;89745;-80
2023/12/12 04:08:19;;;;;;;4.93;1.67;;;;;;;;;;5025926;28;88554;-80
2023/12/12 04:10:46;;;;;;;5.47;1.63;;;;;;;;;;5026221;28;88109;-81
2023/12/12 04:13:12;;;;;;;6.90;1.88;;;;;;;;;;5003956;28;89833;-82
2023/12/12 04:15:39;;;;;;;5.72;1.88;;;;;;;;;;5018595;28;87572;-81
2023/12/12 04:25:27;;;;;;;8.70;1.67;;;;;;;;;;5011337;28;88376;-81
2023/12/12 04:27:54;;;;;;;;;;;;;;;;;;5021226;28;88006;-80
2023/12/12 04:34:13;;;;;;;6.70;1.63;;;;;;;;;;5019440;28;88916;-79
2023/12/12 04:36:40;;;;;;;6.22;1.83;;;;;;;;;;5006254;28;87908;-81
2023/12/12 04:39:08;;;;;;;7.35;1.90;;;;;;;;;;5008613;28;87813;-80
2023/12/12 04:41:38;;;;;;;6.28;1.77;;;;;;;;;;5041079;28;88998;-80
2023/12/12 04:44:04;;;;;;;6.32;2.00;;;;;;;;;;5041828;27;92373;-81
2023/12/12 04:46:31;;;;;;;7.05;1.90;;;;;;;;;;5025244;28;90408;-80
2023/12/12 04:49:00;;;;;;;5.47;1.88;;;;;;;;;;5025708;28;88131;-80
2023/12/12 04:51:26;;;;;;;6.32;1.90;;;;;;;;;;5026965;28;88836;-80
2023/12/12 04:53:53;;;;;;;6.28;1.85;;;;;;;;;;5008833;27;88257;-80
2023/12/12 04:56:20;;;;;;;6.28;1.73;;;;;;;;;;5046086;27;88411;-80
2023/12/12 04:58:46;;;;;;;5.03;1.90;;;;;;;;;;5034926;27;87857;-81
2023/12/12 05:01:16;;;;;;;4.60;1.67;;;;;;;;;;5040709;27;89779;-80
2023/12/12 05:03:43;;;;;;;7.00;1.90;;;;;;;;;;5022787;27;90330;-80
2023/12/12 05:06:10;;;;;;;5.85;1.90;;;;;;;;;;5030074;27;88031;-81
2023/12/12 05:08:37;;;;;;;5.47;1.80;;;;;;;;;;5037112;27;86913;-81
2023/12/12 05:11:04;;;;;;;6.22;1.80;;;;;;;;;;5024706;28;87734;-80
2023/12/12 05:13:31;;;;;;;;;;;;;;;;;;5043330;28;91223;-81
2023/12/12 05:15:57;;;;;;;8.55;2.00;;;;;;;;;;5059941;27;115073;-81
2023/12/12 05:18:24;;;;;;;7.28;1.98;;;;;;;;;;5037639;28;91045;-80
2023/12/12 05:20:51;;;;;;;6.38;1.85;;;;;;;;;;5025500;28;87999;-81
2023/12/12 05:23:17;;;;;;;7.35;1.90;;;;;;;;;;5037441;28;95376;-80
2023/12/12 05:25:44;;;;;;;5.93;1.85;;;;;;;;;;5026105;27;88381;-81
2023/12/12 05:28:10;;;;;;;5.45;2.13;;;;;;;;;;5025297;28;87989;-81
2023/12/12 05:30:37;;;;;;;6.72;2.03;;;;;;;;;;5025526;28;88127;-80
2023/12/12 05:33:06;;;;;;;6.72;1.90;;;;;;;;;;5024942;28;87537;-80
2023/12/12 05:35:33;;;;;;;6.85;1.90;;;;;;;;;;5028354;28;87796;-80
2023/12/12 05:37:59;;;;;;;8.40;2.10;;;;;;;;;;5024211;28;88796;-80
2023/12/12 05:40:26;;;;;;;6.13;1.95;;;;;;;;;;5024313;28;88791;-80
2023/12/12 05:42:52;;;;;;;8.30;2.60;;;;;;;;;;5025063;28;88489;-80
2023/12/12 05:49:09;;;;;;;7.90;2.10;;;;;;;;;;5029779;27;90655;-79
2023/12/12 05:51:37;;;;;;;6.30;2.20;;;;;;;;;;5023428;28;91122;-80
2023/12/12 05:54:04;;;;;;;6.80;2.30;;;;;;;;;;5024145;28;93163;-79
2023/12/12 05:56:31;;;;;;;6.53;2.20;;;;;;;;;;5032636;27;87743;-80
2023/12/12 05:58:58;;;;;;;7.07;2.40;;;;;;;;;;5035698;28;88094;-80
2023/12/12 06:01:24;;;;;;;6.80;2.38;;;;;;;;;;5055515;27;87953;-80
2023/12/12 06:03:51;;;;;;;5.97;2.05;;;;;;;;;;5024052;27;87769;-79
2023/12/12 06:06:20;;;;;;;7.68;2.40;;;;;;;;;;5027639;28;91246;-80
2023/12/12 06:08:47;;;;;;;6.35;2.22;;;;;;;;;;5033820;27;88556;-81
2023/12/12 06:11:13;;;;;;;8.60;2.20;;;;;;;;;;5024365;27;87995;-80
2023/12/12 06:13:40;;;;;;;7.68;2.13;;;;;;;;;;5039851;27;88339;-81
2023/12/12 06:16:07;;;;;;;9.82;2.40;;;;;;;;;;5023783;28;87658;-80
2023/12/12 06:18:33;;;;;;;5.15;2.00;;;;;;;;;;5030090;28;90360;-81
2023/12/12 06:21:00;;;;;;;7.93;2.55;;;;;;;;;;5045240;28;90091;-81
2023/12/12 06:23:26;;;;;;;8.00;2.45;;;;;;;;;;5028262;28;88930;-80
2023/12/12 06:25:54;;;;;;;8.38;2.40;;;;;;;;;;5023735;27;90574;-80
2023/12/12 06:28:20;;;;;;;7.00;2.30;;;;;;;;;;5019085;28;88728;-81
2023/12/12 06:30:47;;;;;;;7.15;2.15;;;;;;;;;;5027302;28;91033;-81
2023/12/12 06:33:13;;;;;;;11.07;2.45;;;;;;;;;;5023321;28;88200;-81
2023/12/12 06:35:40;;;;;;;8.00;2.60;;;;;;;;;;5039003;27;87782;-81
2023/12/12 06:38:07;;;;;;;7.93;2.60;;;;;;;;;;5039589;27;87754;-81
2023/12/12 06:40:34;;;;;;;8.05;2.33;;;;;;;;;;5014141;28;90850;-81
2023/12/12 06:43:00;;;;;;;8.35;2.50;;;;;;;;;;5032572;28;87717;-79
2023/12/12 06:45:27;;;;;;;5.90;2.40;;;;;;;;;;5007862;28;89103;-80
2023/12/12 06:47:54;;;;;;;7.68;2.40;;;;;;;;;;5019536;28;87180;-80
2023/12/12 06:50:20;;;;;;;7.28;2.20;;;;;;;;;;5024219;28;90430;-80
2023/12/12 06:52:47;;;;;;;6.85;2.30;;;;;;;;;;5022993;28;95059;-80
2023/12/12 06:55:15;;;;;;;8.05;2.60;;;;;;;;;;5021153;28;89640;-81
2023/12/12 06:57:42;;;;;;;9.70;2.60;;;;;;;;;;5020789;28;91602;-81
2023/12/12 07:00:09;;;;;;;6.57;2.20;;;;;;;;;;5021427;28;88385;-81
2023/12/12 07:02:35;;;;;;;8.77;2.50;;;;;;;;;;5025866;28;88094;-80
2023/12/12 07:05:04;;;;;;;7.75;2.15;;;;;;;;;;5020670;28;88800;-81
2023/12/12 07:07:32;;;;;;;8.20;2.70;;;;;;;;;;5025036;28;87657;-82
2023/12/12 07:09:59;;;;;;;7.65;2.60;;;;;;;;;;5025476;28;88309;-85
2023/12/12 07:12:26;;;;;;;8.20;2.50;;;;;;;;;;5026785;28;87457;-81
2023/12/12 07:15:12;;;;;;;7.93;2.30;;;;;;;;;;5044657;28;87689;-81
2023/12/12 07:17:39;;;;;;;8.35;2.30;;;;;;;;;;5044567;27;88173;-82
2023/12/12 07:20:06;;;;;;;9.45;2.60;;;;;;;;;;5043875;28;88695;-81
2023/12/12 07:22:32;;;;;;;9.18;2.45;;;;;;;;;;5046633;27;87656;-81
2023/12/12 07:24:59;;;;;;;8.15;2.45;;;;;;;;;;5030854;28;89337;-80
2023/12/12 07:27:26;;;;;;;6.78;2.22;;;;;;;;;;5044546;28;88838;-80
2023/12/12 07:29:53;;;;;;;7.55;2.30;;;;;;;;;;5045425;27;89074;-81
2023/12/12 07:32:19;;;;;;;7.80;2.28;;;;;;;;;;5046401;27;88479;-81
2023/12/12 07:34:46;;;;;;;6.43;2.50;;;;;;;;;;5044650;28;87895;-81
2023/12/12 07:37:13;;;;;;;9.23;2.55;;;;;;;;;;5046075;28;88383;-82
2023/12/12 07:39:39;;;;;;;9.65;2.70;;;;;;;;;;5045395;27;88300;-81
2023/12/12 07:42:06;;;;;;;6.13;2.22;;;;;;;;;;5045934;27;87653;-82
2023/12/12 07:44:33;;;;;;;9.38;2.60;;;;;;;;;;5044182;27;88750;-81
2023/12/12 07:47:02;;;;;;;6.70;2.20;;;;;;;;;;5049108;27;88477;-80
2023/12/12 07:49:29;;;;;;;10.05;2.47;;;;;;;;;;5045294;27;89227;-81
2023/12/12 07:51:56;;;;;;;6.88;2.30;;;;;;;;;;5026636;27;89117;-80
2023/12/12 07:54:22;;;;;;;7.78;2.10;;;;;;;;;;5023773;28;88749;-80
2023/12/12 07:56:49;;;;;;;10.60;2.40;;;;;;;;;;5043993;27;87953;-79
2023/12/12 07:59:17;;;;;;;8.25;2.40;;;;;;;;;;5044352;27;89220;-79
2023/12/12 08:01:44;;;;;;;6.43;2.20;;;;;;;;;;5045202;27;87392;-79
2023/12/12 08:04:10;;;;;;;7.40;2.10;;;;;;;;;;5043270;27;88382;-80
2023/12/12 08:06:37;;;;;;;8.20;2.25;;;;;;;;;;5044985;27;93952;-79
2023/12/12 08:09:04;;;;;;;8.48;2.33;;;;;;;;;;5028975;28;88651;-79
2023/12/12 08:11:30;;;;;;;7.03;2.28;;;;;;;;;;5043544;27;88370;-80
2023/12/12 08:13:57;;;;;;;8.40;2.58;;;;;;;;;;5035698;27;87862;-79
2023/12/12 08:16:24;;;;;;;9.13;2.30;;;;;;;;;;5005030;28;88442;-79
2023/12/12 08:18:50;;;;;;;6.97;2.30;;;;;;;;;;5002613;28;90789;-80
2023/12/12 08:21:17;;;;;;;6.85;2.20;;;;;;;;;;5019853;28;87692;-81
2023/12/12 08:23:44;;;;;;;8.68;2.22;;;;;;;;;;5016387;28;88322;-82
2023/12/12 08:26:11;;;;;;;8.55;2.40;;;;;;;;;;5024800;28;90117;-82
2023/12/12 08:28:38;;;;;;;8.48;2.30;;;;;;;;;;5031140;28;90590;-81
2023/12/12 08:31:05;;;;;;;9.15;2.60;;;;;;;;;;5034990;28;88000;-81
2023/12/12 08:33:33;;;;;;;6.93;2.30;;;;;;;;;;5007804;28;88676;-82
2023/12/12 08:36:00;;;;;;;9.25;2.50;;;;;;;;;;5028441;27;88513;-79
2023/12/12 08:38:27;;;;;;;10.23;2.90;;;;;;;;;;5039186;27;90807;-80
2023/12/12 08:40:54;;;;;;;8.48;2.50;;;;;;;;;;5005035;28;89813;-80
2023/12/12 08:43:21;;;;;;;7.85;2.53;;;;;;;;;;5003834;27;88028;-80
2023/12/12 08:45:47;;;;;;;10.38;2.80;;;;;;;;;;5003601;27;89479;-80
2023/12/12 08:48:14;;;;;;;8.07;2.63;;;;;;;;;;5004132;27;87731;-80
2023/12/12 08:50:40;;;;;;;8.50;2.67;;;;;;;;;;5007698;28;88288;-80
2023/12/12 08:53:08;;;;;;;7.03;2.55;;;;;;;;;;5001996;28;89419;-79
2023/12/12 08:55:34;;;;;;;8.52;2.47;;;;;;;;;;5002974;28;88208;-79
2023/12/12 08:58:01;;;;;;;9.57;2.28;;;;;;;;;;5001271;27;89058;-80
2023/12/12 09:00:27;;;;;;;7.43;2.45;;;;;;;;;;5002788;28;88194;-80
2023/12/12 09:02:57;;;;;;;5.47;2.30;;;;;;;;;;5002593;28;88396;-80
2023/12/12 09:05:23;;;;;;;8.15;2.15;;;;;;;;;;5003910;28;88011;-81
2023/12/12 09:07:51;;;;;;;7.53;2.50;;;;;;;;;;5001985;27;87769;-80
2023/12/12 09:10:18;;;;;;;7.53;2.38;;;;;;;;;;5004472;27;87972;-79
2023/12/12 09:12:44;;;;;;;7.75;2.35;;;;;;;;;;5005469;28;90880;-80
2023/12/12 09:15:10;;;;;;;7.25;2.45;;;;;;;;;;5029872;28;88738;-81
2023/12/12 09:17:37;;;;;;;7.25;2.17;;;;;;;;;;5031342;27;88690;-80
2023/12/12 09:20:06;;;;;;;7.65;2.33;;;;;;;;;;5040362;28;87993;-83
2023/12/12 09:22:33;;;;;;;6.63;2.20;;;;;;;;;;5030457;27;88419;-83
2023/12/12 09:25:00;;;;;;;6.53;2.20;;;;;;;;;;5043685;27;87956;-83
2023/12/12 09:27:26;;;;;;;8.35;2.33;;;;;;;;;;5042316;28;87919;-81
2023/12/12 09:29:53;;;;;;;5.57;2.10;;;;;;;;;;5041104;27;88554;-80
2023/12/12 09:32:21;;;;;;;18.75;2.22;;;;;;;;;;5025776;28;88606;-79
2023/12/12 09:34:48;;;;;;;6.97;2.03;;;;;;;;;;5044348;27;87719;-79
2023/12/12 09:37:14;;;;;;;10.70;2.08;;;;;;;;;;5028550;28;90379;-79
2023/12/12 09:39:41;;;;;;;8.52;2.40;;;;;;;;;;5022483;27;87356;-79
2023/12/12 09:42:11;;;;;;;8.05;2.45;;;;;;;;;;5005256;28;89866;-80
2023/12/12 09:44:42;;;;;;;7.13;2.08;;;;;;;;;;5022777;28;88302;-80
2023/12/12 09:47:10;;;;;;;7.22;2.38;;;;;;;;;;5013719;28;90030;-79
2023/12/12 09:49:37;;;;;;;5.60;2.00;;;;;;;;;;5033570;28;88345;-80
2023/12/12 09:52:04;;;;;;;7.78;2.30;;;;;;;;;;5042122;27;93625;-81
2023/12/12 09:54:31;;;;;;;7.85;2.25;;;;;;;;;;5023008;28;90339;-80
2023/12/12 09:56:58;;;;;;;8.27;2.28;;;;;;;;;;5043899;28;90225;-80
2023/12/12 09:59:25;;;;;;;8.88;2.17;;;;;;;;;;5040586;27;87813;-80
2023/12/12 10:01:54;;;;;;;5.75;2.00;;;;;;;;;;5041116;27;89093;-79
2023/12/12 10:04:21;;;;;;;6.70;1.98;;;;;;;;;;5041421;27;90143;-81
2023/12/12 10:06:53;;;;;;;7.18;2.05;;;;;;;;;;5041505;27;89658;-78
2023/12/12 10:09:24;;;;;;;7.32;2.00;;;;;;;;;;5042468;27;88151;-79
2023/12/12 10:11:50;;;;;;;7.45;2.30;;;;;;;;;;5039722;27;89734;-80
2023/12/12 10:14:36;;;;;;;7.43;2.05;;;;;;;;;;5019821;28;88827;-80
2023/12/12 10:17:04;;;;;;;6.72;2.03;;;;;;;;;;5009854;28;88471;-79
2023/12/12 10:19:31;;;;;;;7.30;2.00;;;;;;;;;;5003444;28;90449;-79
2023/12/12 10:22:00;;;;;;;6.50;2.10;;;;;;;;;;5004138;28;88076;-80
2023/12/12 10:24:27;;;;;;;5.63;1.98;;;;;;;;;;5012455;28;91386;-80
2023/12/12 10:26:54;;;;;;;8.48;2.17;;;;;;;;;;5002358;28;87786;-82
2023/12/12 10:29:20;;;;;;;7.28;2.03;;;;;;;;;;4985257;28;90717;-79
2023/12/12 10:31:47;;;;;;;8.55;2.30;;;;;;;;;;5017894;28;88258;-79
2023/12/12 10:34:13;;;;;;;11.02;2.25;;;;;;;;;;5019861;27;87746;-80
2023/12/12 10:36:46;;;;;;;8.05;2.10;;;;;;;;;;5031833;27;88501;-81
2023/12/12 10:39:14;;;;;;;9.43;2.10;;;;;;;;;;5029938;27;89459;-80
2023/12/12 10:41:55;;;;;;;9.45;2.30;;;;;;;;;;5027180;28;87596;-81
2023/12/12 10:44:35;;;;;;;10.32;2.08;;;;;;;;;;5025138;28;90691;-81
2023/12/12 10:47:02;;;;;;;9.63;2.10;;;;;;;;;;5025554;28;89821;-80
2023/12/12 10:49:31;;;;;;;9.77;2.15;;;;;;;;;;5008983;28;91096;-81
2023/12/12 10:52:01;;;;;;;7.47;1.90;;;;;;;;;;5025472;28;90935;-81
2023/12/12 10:54:28;;;;;;;8.32;2.25;;;;;;;;;;5025900;28;87060;-81
2023/12/12 10:56:55;;;;;;;6.25;1.88;;;;;;;;;;5027070;28;87766;-81
2023/12/12 10:59:23;;;;;;;8.00;2.20;;;;;;;;;;5025728;28;90066;-81
2023/12/12 11:02:10;;;;;;;6.32;1.90;;;;;;;;;;5029394;28;91201;-82
2023/12/12 11:04:37;;;;;;;6.82;1.90;;;;;;;;;;5024749;28;90412;-81
2023/12/12 11:07:04;;;;;;;6.75;1.92;;;;;;;;;;5030710;28;87957;-81
2023/12/12 11:09:31;;;;;;;7.18;1.92;;;;;;;;;;5025227;28;90198;-81
2023/12/12 11:11:59;;;;;;;7.60;2.10;;;;;;;;;;5025092;28;88579;-81
2023/12/12 11:14:26;;;;;;;7.47;1.98;;;;;;;;;;5012782;28;88778;-81
2023/12/12 11:16:56;;;;;;;6.88;1.98;;;;;;;;;;5026693;28;88452;-80
2023/12/12 11:19:24;;;;;;;8.30;2.10;;;;;;;;;;5024798;28;89961;-81
2023/12/12 11:21:53;;;;;;;7.40;2.05;;;;;;;;;;5005997;28;89953;-80
2023/12/12 11:24:20;;;;;;;9.80;2.20;;;;;;;;;;5014699;28;88277;-80
2023/12/12 11:26:47;;;;;;;7.20;1.85;;;;;;;;;;5015373;28;88435;-81
2023/12/12 11:29:14;;;;;;;;;;;;;;;;;;5022009;28;90761;-80
2023/12/12 11:31:57;;;;;;;7.18;2.08;;;;;;;;;;5012270;28;110396;-81
2023/12/12 11:34:24;;;;;;;6.55;1.75;;;;;;;;;;5026556;27;87964;-80
2023/12/12 11:36:51;;;;;;;;;;;;;;;;;;5035346;28;90669;-80
2023/12/12 11:39:22;;;;;;;7.30;2.20;;;;;;;;;;5046164;27;88657;-79
2023/12/12 11:41:49;;;;;;;8.60;2.00;;;;;;;;;;5044723;27;87622;-79
2023/12/12 11:44:17;;;;;;;7.78;2.13;;;;;;;;;;5045065;27;88128;-79
2023/12/12 11:46:44;;;;;;;6.80;1.88;;;;;;;;;;5049120;27;88498;-79
2023/12/12 11:49:23;;;;;;;7.22;2.03;;;;;;;;;;5045989;27;87939;-80
2023/12/12 11:51:51;;;;;;;7.03;1.90;;;;;;;;;;5042991;27;89400;-79
2023/12/12 11:54:20;;;;;;;9.73;1.88;;;;;;;;;;5041503;27;89090;-80
2023/12/12 11:56:48;;;;;;;9.05;2.30;;;;;;;;;;5042601;27;88499;-80
2023/12/12 11:59:22;;;;;;;9.27;2.15;;;;;;;;;;5026363;28;90786;-80
2023/12/12 12:01:49;;;;;;;6.43;1.85;;;;;;;;;;5043494;27;87927;-80
2023/12/12 12:04:16;;;;;;;6.60;1.95;;;;;;;;;;5043590;27;88027;-80
2023/12/12 12:06:43;;;;;;;7.25;2.00;;;;;;;;;;5043818;27;90878;-80
2023/12/12 12:09:10;;;;;;;;;;;;;;;;;;5046993;27;87884;-80
2023/12/12 12:11:37;;;;;;;8.50;2.30;;;;;;;;;;5027946;27;91277;-80
2023/12/12 12:14:03;;;;;;;9.20;2.50;;;;;;;;;;5040617;28;89479;-77
2023/12/12 12:16:30;;;;;;;10.07;2.78;;;;;;;;;;5036995;27;88335;-78
2023/12/12 12:18:56;;;;;;;16.88;3.35;;;;;;;;;;5024353;28;88251;-79
2023/12/12 12:21:25;;;;;;;14.52;2.80;;;;;;;;;;5024687;28;87627;-79
2023/12/12 12:23:52;;;;;;;12.20;3.10;;;;;;;;;;5022955;28;88086;-79
2023/12/12 12:26:19;;;;;;;11.35;3.28;;;;;;;;;;5022976;28;90827;-79
2023/12/12 12:28:46;;;;;;;11.55;3.33;;;;;;;;;;5023895;28;88422;-79
2023/12/12 12:31:13;;;;;;;12.98;3.13;;;;;;;;;;5027135;28;94863;-79
2023/12/12 12:33:40;;;;;;;9.45;3.00;;;;;;;;;;5024012;27;86909;-79
2023/12/12 12:36:07;;;;;;;10.18;3.45;;;;;;;;;;5039068;27;88388;-79
2023/12/12 12:38:33;;;;;;;10.45;2.90;;;;;;;;;;5022668;28;88793;-78
2023/12/12 12:41:00;;;;;;;12.65;3.42;;;;;;;;;;5023752;27;88438;-78
2023/12/12 12:43:27;;;;;;;12.57;3.63;;;;;;;;;;5021919;28;91146;-78
2023/12/12 12:45:55;;;;;;;9.77;2.97;;;;;;;;;;5022527;28;88173;-79
2023/12/12 12:48:22;;;;;;;11.40;3.13;;;;;;;;;;5023114;28;87899;-80
2023/12/12 12:50:50;;;;;;;9.18;3.08;;;;;;;;;;5033323;28;88000;-79
2023/12/12 12:53:17;;;;;;;10.32;2.88;;;;;;;;;;5045397;27;91101;-79
2023/12/12 12:55:43;;;;;;;9.25;2.85;;;;;;;;;;5043954;27;88231;-79
2023/12/12 12:58:11;;;;;;;10.13;2.97;;;;;;;;;;5044432;27;87541;-80
2023/12/12 13:00:38;;;;;;;;;;;;;;;;;;5043506;27;88882;-79
2023/12/12 13:03:06;;;;;;;10.13;2.38;;;;;;;;;;5027569;28;94461;-79
2023/12/12 13:05:32;;;;;;;9.00;2.78;;;;;;;;;;5041799;28;89921;-79
2023/12/12 13:07:59;;;;;;;9.93;2.80;;;;;;;;;;5043817;27;87967;-78
2023/12/12 13:10:26;;;;;;;10.48;2.50;;;;;;;;;;5044600;27;87845;-79
2023/12/12 13:13:12;;;;;;;9.32;2.38;;;;;;;;;;5046445;27;87851;-79
2023/12/12 13:15:39;;;;;;;;;;;;;;;;;;5042579;27;88004;-79
2023/12/12 13:18:06;;;;;;;8.40;2.25;;;;;;;;;;5018217;28;91337;-79
2023/12/12 13:20:33;;;;;;;7.38;2.20;;;;;;;;;;5023650;27;87748;-79
2023/12/12 13:22:59;;;;;;;9.10;2.25;;;;;;;;;;5039394;27;88247;-79
2023/12/12 13:25:26;;;;;;;7.80;2.30;;;;;;;;;;5041302;27;88029;-79
2023/12/12 13:27:53;;;;;;;7.22;2.13;;;;;;;;;;5026324;27;88974;-79
2023/12/12 13:30:20;;;;;;;7.57;2.33;;;;;;;;;;5035622;27;88334;-79
2023/12/12 13:32:47;;;;;;;7.45;2.25;;;;;;;;;;5023025;27;89039;-78
2023/12/12 13:35:15;;;;;;;7.43;2.30;;;;;;;;;;5008846;28;88549;-78
2023/12/12 13:38:00;;;;;;;7.63;2.20;;;;;;;;;;5022852;27;88188;-78
2023/12/12 13:40:26;;;;;;;6.53;1.98;;;;;;;;;;5015357;28;88125;-78
2023/12/12 13:42:53;;;;;;;8.20;2.10;;;;;;;;;;5023282;27;88905;-78
2023/12/12 13:45:20;;;;;;;8.20;1.98;;;;;;;;;;5022778;27;90758;-78
2023/12/12 13:47:46;;;;;;;6.03;1.95;;;;;;;;;;5024083;27;87390;-79
2023/12/12 13:50:13;;;;;;;4.80;1.80;;;;;;;;;;5022029;28;90524;-78
2023/12/12 13:52:40;;;;;;;7.00;1.92;;;;;;;;;;5022275;27;88577;-78
2023/12/12 13:55:07;;;;;;;6.38;1.98;;;;;;;;;;5020222;28;88793;-78
2023/12/12 13:57:33;;;;;;;7.78;2.20;;;;;;;;;;5024158;27;89138;-79
2023/12/12 14:00:00;;;;;;;8.63;2.42;;;;;;;;;;5022941;27;88946;-79
2023/12/12 14:02:27;;;;;;;7.40;2.28;;;;;;;;;;5043417;27;87770;-79
2023/12/12 14:05:01;;;;;;;7.65;1.90;;;;;;;;;;5041781;27;88550;-80
2023/12/12 14:07:29;;;;;;;9.48;2.05;;;;;;;;;;5041567;27;88329;-79
2023/12/12 14:09:56;;;;;;;8.45;1.83;;;;;;;;;;5040498;27;88287;-78
2023/12/12 14:12:22;;;;;;;7.05;1.73;;;;;;;;;;5042125;27;87920;-80
2023/12/12 14:14:49;;;;;;;8.73;2.00;;;;;;;;;;5033447;27;87987;-79
2023/12/12 14:17:15;;;;;;;7.03;2.00;;;;;;;;;;5042469;27;91032;-78
2023/12/12 14:19:42;;;;;;;8.88;2.08;;;;;;;;;;5028546;27;89168;-80
2023/12/12 14:22:09;;;;;;;7.85;2.28;;;;;;;;;;5026373;27;90155;-80
2023/12/12 14:24:39;;;;;;;8.43;2.13;;;;;;;;;;5013655;28;90419;-82
2023/12/12 14:27:06;;;;;;;9.23;2.00;;;;;;;;;;5016331;27;88778;-82
2023/12/12 14:29:33;;;;;;;;;;;;;;;;;;5020665;28;88043;-81
2023/12/12 14:32:00;;;;;;;8.75;2.35;;;;;;;;;;5026157;27;97193;-93
2023/12/12 14:34:27;;;;;;;6.10;1.80;;;;;;;;;;5025771;28;88234;-79
2023/12/12 14:36:53;;;;;;;6.65;1.90;;;;;;;;;;5046603;27;90512;-83
2023/12/12 14:39:20;;;;;;;5.00;1.80;;;;;;;;;;5031878;27;88445;-81
2023/12/12 14:41:47;;;;;;;6.38;2.00;;;;;;;;;;5030020;27;88035;-82
2023/12/12 14:44:14;;;;;;;8.95;2.10;;;;;;;;;;5026873;28;89006;-84
2023/12/12 14:46:41;;;;;;;6.78;1.67;;;;;;;;;;5027123;28;87671;-86
2023/12/12 14:49:07;;;;;;;;;;;;;;;;;;5029683;28;90178;-83
2023/12/12 14:51:37;;;;;;;5.50;1.55;;;;;;;;;;5030000;27;90921;-84
2023/12/12 14:54:04;;;;;;;5.93;1.70;;;;;;;;;;5028235;28;89646;-83
2023/12/12 14:56:31;;;;;;;6.10;1.73;;;;;;;;;;5041259;27;87597;-84
2023/12/12 14:59:03;;;;;;;5.85;1.83;;;;;;;;;;5014385;28;91453;-85
2023/12/12 15:01:30;;;;;;;5.55;1.88;;;;;;;;;;5011074;28;90109;-84